Terminal Aerodrome Forecast
Issued by NWS

Home | Current Version | Previous Version | Text Only | Print | Product List | Glossary On
Versions: 1 2 3 4 5 6 7 8 9 10 11 12 13 14 15 16 17 18
824
FTUS41 KBTV 121740
TAFRUT
TAF
KRUT 121740Z 1218/1318 23005KT P6SM SCT150
     FM130000 17005KT P6SM OVC060
     FM130900 31009KT 3SM -SHSN OVC025
     FM131100 32010KT P6SM VCSH OVC025
     FM131300 30010KT P6SM BKN035
      AMD LTD TO CLD VIS AND WIND=

USA.gov is the U.S. government's official web portal to all federal, state and local government web resources and services.